createdAt,value
2018-06-23T00:00:49.993Z,66.64
2018-06-23T00:03:17.661Z,67.31
2018-06-23T00:05:46.380Z,67.61
2018-06-23T00:08:14.061Z,68.01
2018-06-23T00:10:41.724Z,67.59
2018-06-23T00:13:09.383Z,67.69
2018-06-23T00:15:37.129Z,68.15
2018-06-23T00:18:04.914Z,68.26
2018-06-23T00:20:32.692Z,67.82
2018-06-23T00:23:00.367Z,67.49
2018-06-23T00:25:33.833Z,67.60
2018-06-23T00:28:01.453Z,67.88
2018-06-23T00:30:29.125Z,67.55
2018-06-23T00:32:56.871Z,67.23
2018-06-23T00:35:24.552Z,68.08
2018-06-23T00:37:52.196Z,67.65
2018-06-23T00:40:19.913Z,67.33
2018-06-23T00:42:47.612Z,67.92
2018-06-23T00:45:15.325Z,68.49
2018-06-23T00:47:42.960Z,67.95
2018-06-23T00:50:10.734Z,68.05
2018-06-23T00:52:38.416Z,67.38
2018-06-23T00:55:06.432Z,66.82
2018-06-23T00:57:34.100Z,66.70
2018-06-23T01:00:01.841Z,67.11
2018-06-23T01:02:29.512Z,66.45
2018-06-23T01:04:57.255Z,66.66
2018-06-23T01:07:24.854Z,66.34
2018-06-23T01:09:52.580Z,66.26
2018-06-23T01:12:20.299Z,66.28
2018-06-23T01:14:48.067Z,67.11
2018-06-23T01:17:15.771Z,67.13
2018-06-23T01:19:43.449Z,67.54
2018-06-23T01:22:11.105Z,67.92
2018-06-23T01:24:38.852Z,67.39
2018-06-23T01:27:06.525Z,67.51
2018-06-23T01:29:34.485Z,68.13
2018-06-23T01:32:02.180Z,68.72
2018-06-23T01:34:29.779Z,68.74
2018-06-23T01:36:57.535Z,69.12
2018-06-23T01:39:25.462Z,69.45
2018-06-23T01:41:53.080Z,70.43
2018-06-23T01:44:20.707Z,70.40
2018-06-23T01:46:48.381Z,71.40
2018-06-23T01:49:16.112Z,71.14
2018-06-23T01:51:43.788Z,70.69
2018-06-23T01:54:11.488Z,69.88
2018-06-23T01:56:39.167Z,70.23
2018-06-23T01:59:06.803Z,70.46
2018-06-23T02:01:34.508Z,70.97
2018-06-23T02:04:02.479Z,70.33
2018-06-23T02:06:30.166Z,69.92
2018-06-23T02:08:57.839Z,69.67
2018-06-23T02:11:25.511Z,70.19
2018-06-23T02:13:59.332Z,69.08
2018-06-23T02:16:32.755Z,69.49
2018-06-23T02:19:06.272Z,70.08
2018-06-23T02:21:39.657Z,69.36
2018-06-23T02:24:13.245Z,69.18
2018-06-23T02:26:46.684Z,69.67
2018-06-23T02:29:20.171Z,69.21
2018-06-23T02:31:53.696Z,69.06
2018-06-23T02:34:26.913Z,69.67
2018-06-23T02:36:54.619Z,69.12
2018-06-23T02:39:22.288Z,69.03
2018-06-23T02:41:49.964Z,70.28
2018-06-23T02:44:17.696Z,70.05
2018-06-23T02:46:45.422Z,69.76
2018-06-23T02:49:13.046Z,69.63
2018-06-23T02:51:40.750Z,68.57
2018-06-23T02:54:08.426Z,68.68
2018-06-23T02:56:36.034Z,70.09
2018-06-23T02:59:03.710Z,70.11
2018-06-23T03:01:31.404Z,70.36
2018-06-23T03:03:58.951Z,70.01
2018-06-23T03:06:26.558Z,68.85
2018-06-23T03:08:54.256Z,69.19
2018-06-23T03:11:21.954Z,69.30
2018-06-23T03:13:49.647Z,70.14
2018-06-23T03:16:17.217Z,69.96
2018-06-23T03:18:44.928Z,70.64
2018-06-23T03:21:12.569Z,70.46
2018-06-23T03:23:40.287Z,69.80
2018-06-23T03:26:07.913Z,69.53
2018-06-23T03:28:35.675Z,69.32
2018-06-23T03:31:03.267Z,68.84
2018-06-23T03:33:30.888Z,69.07
2018-06-23T03:35:58.741Z,68.67
2018-06-23T03:38:26.420Z,69.22
2018-06-23T03:40:53.986Z,69.53
2018-06-23T03:43:21.715Z,68.73
2018-06-23T03:45:49.421Z,67.79
2018-06-23T03:48:17.123Z,69.05
2018-06-23T03:50:44.774Z,69.51
2018-06-23T03:53:12.599Z,68.31
2018-06-23T03:55:40.322Z,68.31
2018-06-23T03:58:08.248Z,67.15
2018-06-23T04:00:36.918Z,67.60
2018-06-23T04:03:04.655Z,68.21
2018-06-23T04:05:32.318Z,68.92
2018-06-23T04:08:00.094Z,67.37
2018-06-23T04:10:27.718Z,67.53
2018-06-23T04:12:55.431Z,66.99
2018-06-23T04:15:23.095Z,67.19
2018-06-23T04:17:50.774Z,66.98
2018-06-23T04:20:18.433Z,67.55
2018-06-23T04:22:46.097Z,67.57
2018-06-23T04:25:13.830Z,66.29
2018-06-23T04:27:41.651Z,65.00
2018-06-23T04:30:09.485Z,65.76
2018-06-23T04:32:37.143Z,66.20
2018-06-23T04:35:06.111Z,65.19
2018-06-23T04:37:33.991Z,65.00
2018-06-23T04:40:01.618Z,65.30
2018-06-23T04:42:29.288Z,65.05
2018-06-23T04:44:56.930Z,64.95
2018-06-23T04:47:24.560Z,64.30
2018-06-23T04:49:52.193Z,65.52
2018-06-23T04:52:19.846Z,65.04
2018-06-23T04:54:47.546Z,66.89
2018-06-23T04:57:15.218Z,66.02
2018-06-23T04:59:42.889Z,66.14
2018-06-23T05:02:10.536Z,64.76
2018-06-23T05:04:38.101Z,63.92
2018-06-23T05:07:05.775Z,63.69
2018-06-23T05:09:33.715Z,63.76
2018-06-23T05:12:01.323Z,63.38
2018-06-23T05:14:28.961Z,63.71
2018-06-23T05:16:56.565Z,62.51
2018-06-23T05:19:24.259Z,63.28
2018-06-23T05:21:51.961Z,62.81
2018-06-23T05:24:19.687Z,64.25
2018-06-23T05:26:47.693Z,63.15
2018-06-23T05:29:15.306Z,63.56
2018-06-23T05:31:43.020Z,62.67
2018-06-23T05:34:10.655Z,61.06
2018-06-23T05:36:38.311Z,60.53
2018-06-23T05:39:07.867Z,61.23
2018-06-23T05:41:36.136Z,60.86
2018-06-23T05:44:04.003Z,60.59
2018-06-23T05:46:31.709Z,60.32
2018-06-23T05:48:59.347Z,59.04
2018-06-23T05:51:26.982Z,58.17
2018-06-23T05:53:54.596Z,58.84
2018-06-23T05:56:22.223Z,60.40
2018-06-23T05:58:49.822Z,58.68
2018-06-23T06:01:17.478Z,59.23
2018-06-23T06:03:45.174Z,55.22
2018-06-23T06:06:12.918Z,54.00
2018-06-23T06:08:41.486Z,54.13
2018-06-23T06:11:09.170Z,53.94
2018-06-23T06:13:37.129Z,53.99
2018-06-23T06:16:06.520Z,52.76
2018-06-23T06:18:34.150Z,51.40
2018-06-23T06:21:02.127Z,50.56
2018-06-23T06:23:29.797Z,48.42
2018-06-23T06:25:57.741Z,50.21
2018-06-23T06:28:25.424Z,51.23
2018-06-23T06:30:53.074Z,53.81
2018-06-23T06:33:21.006Z,54.39
2018-06-23T06:35:49.642Z,54.68
2018-06-23T06:38:17.373Z,53.89
2018-06-23T06:40:45.044Z,53.19
2018-06-23T06:43:12.721Z,51.62
2018-06-23T06:45:40.381Z,50.71
2018-06-23T06:48:08.144Z,48.68
2018-06-23T06:50:35.790Z,48.48
2018-06-23T06:53:03.627Z,48.58
2018-06-23T06:55:31.393Z,48.33
2018-06-23T06:57:59.081Z,48.37
2018-06-23T07:00:26.867Z,49.19
2018-06-23T07:02:54.519Z,48.14
2018-06-23T07:05:22.200Z,46.19
2018-06-23T07:07:49.803Z,46.68
2018-06-23T07:10:17.519Z,46.25
2018-06-23T07:12:45.227Z,46.29
2018-06-23T07:15:15.127Z,46.43
2018-06-23T07:17:43.131Z,44.93
2018-06-23T07:20:11.281Z,44.53
2018-06-23T07:22:39.695Z,45.61
2018-06-23T07:25:07.463Z,44.57
2018-06-23T07:27:35.339Z,44.24
2018-06-23T07:30:03.747Z,44.98
2018-06-23T07:32:32.733Z,46.30
2018-06-23T07:35:00.407Z,44.72
2018-06-23T07:37:28.207Z,45.42
2018-06-23T07:39:55.957Z,44.88
2018-06-23T07:42:23.692Z,44.99
2018-06-23T07:44:51.468Z,44.59
2018-06-23T07:47:19.254Z,44.27
2018-06-23T07:49:47.158Z,44.96
2018-06-23T07:52:14.842Z,46.58
2018-06-23T07:54:42.514Z,45.76
2018-06-23T07:57:10.222Z,47.12
2018-06-23T07:59:37.936Z,46.92
2018-06-23T08:02:05.649Z,48.09
2018-06-23T08:04:33.480Z,47.10
2018-06-23T08:07:01.099Z,46.98
2018-06-23T08:09:28.807Z,47.96
2018-06-23T08:11:56.526Z,48.69
2018-06-23T08:14:24.222Z,48.78
2018-06-23T08:16:52.278Z,49.32
2018-06-23T08:19:20.014Z,49.87
2018-06-23T08:21:47.659Z,50.04
2018-06-23T08:24:15.329Z,51.12
2018-06-23T08:26:43.247Z,52.90
2018-06-23T08:29:11.023Z,52.27
2018-06-23T08:31:38.648Z,53.35
2018-06-23T08:34:06.293Z,53.41
2018-06-23T08:36:34.043Z,53.25
2018-06-23T08:39:01.737Z,53.55
2018-06-23T08:41:29.403Z,52.84
2018-06-23T08:43:57.953Z,53.42
2018-06-23T08:46:25.615Z,53.84
2018-06-23T08:48:53.263Z,54.83
2018-06-23T08:51:20.978Z,54.51
2018-06-23T08:53:48.665Z,53.87
2018-06-23T08:56:16.402Z,53.96
2018-06-23T08:58:44.074Z,52.90
2018-06-23T09:01:11.816Z,53.88
2018-06-23T09:03:39.478Z,52.04
2018-06-23T09:06:07.163Z,52.37
2018-06-23T09:08:34.845Z,55.96
2018-06-23T09:11:02.512Z,57.33
2018-06-23T09:13:30.154Z,57.60
2018-06-23T09:15:58.944Z,58.17
2018-06-23T09:18:26.608Z,56.26
2018-06-23T09:20:54.230Z,57.23
2018-06-23T09:23:21.920Z,57.73
2018-06-23T09:25:49.653Z,57.86
2018-06-23T09:28:17.234Z,56.65
2018-06-23T09:30:44.949Z,53.47
2018-06-23T09:33:12.606Z,52.02
2018-06-23T09:35:40.262Z,51.01
2018-06-23T09:38:07.910Z,53.48
2018-06-23T09:40:35.567Z,54.99
2018-06-23T09:43:03.235Z,54.10
2018-06-23T09:45:30.893Z,54.69
2018-06-23T09:47:58.545Z,53.79
2018-06-23T09:50:26.247Z,54.09
2018-06-23T09:52:53.855Z,51.84
2018-06-23T09:55:21.536Z,53.67
2018-06-23T09:57:49.233Z,55.86
2018-06-23T10:00:21.569Z,55.52
2018-06-23T10:02:49.262Z,55.01
2018-06-23T10:05:16.964Z,54.59
2018-06-23T10:07:44.630Z,53.04
2018-06-23T10:10:12.336Z,54.08
2018-06-23T10:12:40.055Z,56.37
2018-06-23T10:15:07.747Z,57.06
2018-06-23T10:17:35.484Z,59.69
2018-06-23T10:20:03.384Z,60.18
2018-06-23T10:22:31.038Z,62.93
2018-06-23T10:24:58.680Z,61.90
2018-06-23T10:27:26.327Z,61.44
2018-06-23T10:29:53.973Z,60.78
2018-06-23T10:32:21.622Z,61.22
2018-06-23T10:34:49.271Z,59.59
2018-06-23T10:37:16.918Z,54.99
2018-06-23T10:39:44.617Z,56.59
2018-06-23T10:42:12.341Z,52.85
2018-06-23T10:44:40.034Z,50.33
2018-06-23T10:47:07.785Z,54.04
2018-06-23T10:49:35.429Z,53.69
2018-06-23T10:52:03.345Z,55.71
2018-06-23T10:54:30.975Z,59.15
2018-06-23T10:56:58.618Z,58.56
2018-06-23T10:59:26.290Z,56.52
2018-06-23T11:01:54.003Z,58.23
2018-06-23T11:04:21.690Z,59.20
2018-06-23T11:06:49.345Z,59.80
2018-06-23T11:09:16.987Z,58.29
2018-06-23T11:11:44.737Z,60.83
2018-06-23T11:14:12.375Z,61.43
2018-06-23T11:16:40.116Z,60.81
2018-06-23T11:19:07.930Z,58.33
2018-06-23T11:21:35.570Z,57.14
2018-06-23T11:24:03.364Z,60.13
2018-06-23T11:26:31.110Z,60.83
2018-06-23T11:28:58.830Z,60.47
2018-06-23T11:31:26.452Z,58.74
2018-06-23T11:33:54.190Z,58.09
2018-06-23T11:36:21.894Z,55.48
2018-06-23T11:38:49.743Z,57.88
2018-06-23T11:41:17.575Z,57.20
2018-06-23T11:43:45.305Z,59.69
2018-06-23T11:46:12.973Z,59.74
2018-06-23T11:48:40.712Z,57.64
2018-06-23T11:51:08.427Z,58.68
2018-06-23T11:53:36.223Z,58.82
2018-06-23T11:56:04.813Z,57.86
2018-06-23T11:58:33.179Z,54.00
2018-06-23T12:01:01.075Z,54.49
2018-06-23T12:03:28.834Z,57.00
2018-06-23T12:05:56.637Z,57.64
2018-06-23T12:08:24.470Z,55.40
2018-06-23T12:10:52.072Z,58.03
2018-06-23T12:13:19.756Z,59.66
2018-06-23T12:15:47.484Z,61.18
2018-06-23T12:18:15.252Z,60.81
2018-06-23T12:20:42.989Z,60.74
2018-06-23T12:23:10.647Z,62.37
2018-06-23T12:25:38.456Z,62.92
2018-06-23T12:28:06.617Z,61.36
2018-06-23T12:30:35.480Z,57.65
2018-06-23T12:33:03.204Z,54.42
2018-06-23T12:35:30.944Z,50.21
2018-06-23T12:37:58.784Z,49.27
2018-06-23T12:40:26.630Z,47.98
2018-06-23T12:42:54.299Z,48.18
2018-06-23T12:45:22.085Z,46.84
2018-06-23T12:47:49.774Z,46.63
2018-06-23T12:50:17.445Z,45.30
2018-06-23T12:52:45.143Z,45.19
2018-06-23T12:55:12.777Z,42.57
2018-06-23T12:57:40.521Z,42.96
2018-06-23T13:00:08.245Z,44.82
2018-06-23T13:02:36.116Z,45.75
2018-06-23T13:05:04.537Z,45.44
2018-06-23T13:07:32.343Z,44.45
2018-06-23T13:10:00.165Z,44.21
2018-06-23T13:12:27.831Z,46.13
2018-06-23T13:14:55.643Z,46.85
2018-06-23T13:17:23.373Z,47.37
2018-06-23T13:19:51.004Z,46.20
2018-06-23T13:22:18.749Z,48.44
2018-06-23T13:24:46.487Z,50.79
2018-06-23T13:27:14.262Z,50.17
2018-06-23T13:29:42.068Z,52.38
2018-06-23T13:32:09.724Z,53.21
2018-06-23T13:34:37.499Z,52.15
2018-06-23T13:37:05.192Z,51.56
2018-06-23T13:39:32.974Z,49.78
2018-06-23T13:42:00.638Z,49.98
2018-06-23T13:44:28.626Z,47.09
2018-06-23T13:46:56.346Z,43.33
2018-06-23T13:49:24.102Z,43.22
2018-06-23T13:51:51.733Z,38.38
2018-06-23T13:54:19.468Z,33.22
2018-06-23T13:56:47.183Z,36.75
2018-06-23T13:59:14.919Z,38.47
2018-06-23T14:01:42.688Z,39.40
2018-06-23T14:04:10.431Z,43.78
2018-06-23T14:06:38.292Z,47.89
2018-06-23T14:09:09.153Z,51.08
2018-06-23T14:11:36.788Z,52.51
2018-06-23T14:14:04.536Z,55.32
2018-06-23T14:16:32.221Z,54.49
2018-06-23T14:18:59.872Z,56.52
2018-06-23T14:21:27.533Z,56.04
2018-06-23T14:23:55.171Z,56.71
2018-06-23T14:26:22.996Z,55.84
2018-06-23T14:28:50.623Z,55.68
2018-06-23T14:31:18.843Z,57.35
2018-06-23T14:33:46.522Z,61.16
2018-06-23T14:36:14.295Z,62.99
2018-06-23T14:38:42.307Z,65.56
2018-06-23T14:41:10.068Z,66.80
2018-06-23T14:43:37.730Z,68.63
2018-06-23T14:46:05.533Z,69.43
2018-06-23T14:48:33.381Z,68.14
2018-06-23T14:51:01.118Z,68.17
2018-06-23T14:53:28.817Z,68.76
2018-06-23T14:55:56.534Z,68.00
2018-06-23T14:58:24.211Z,69.96
2018-06-23T15:00:51.967Z,68.65
2018-06-23T15:03:19.602Z,69.29
2018-06-23T15:05:47.342Z,70.51
2018-06-23T15:09:32.492Z,71.46
2018-06-23T15:12:17.756Z,75.16
2018-06-23T15:14:46.060Z,75.64
2018-06-23T15:17:13.815Z,75.64
2018-06-23T15:19:41.459Z,74.55
2018-06-23T15:22:09.195Z,73.81
2018-06-23T15:24:36.843Z,72.72
2018-06-23T15:27:05.278Z,73.24
2018-06-23T15:29:32.954Z,71.64
2018-06-23T15:32:00.602Z,71.29
2018-06-23T15:34:28.294Z,70.63
2018-06-23T15:36:56.034Z,69.65
2018-06-23T15:39:23.710Z,68.89
2018-06-23T15:41:51.506Z,68.25
2018-06-23T15:44:19.213Z,66.88
2018-06-23T15:46:46.906Z,67.96
2018-06-23T15:49:14.652Z,67.86
2018-06-23T15:51:44.726Z,66.86
2018-06-23T15:54:12.892Z,67.92
2018-06-23T15:56:40.558Z,68.29
2018-06-23T15:59:08.289Z,66.90
2018-06-23T16:01:35.887Z,65.42
2018-06-23T16:04:03.614Z,65.82
2018-06-23T16:06:31.337Z,65.39
2018-06-23T16:08:59.093Z,66.93
2018-06-23T16:11:26.791Z,66.57
2018-06-23T16:13:54.623Z,66.24
2018-06-23T16:16:22.329Z,67.88
2018-06-23T16:18:49.939Z,66.80
2018-06-23T16:21:17.773Z,67.89
2018-06-23T16:23:45.418Z,67.80
2018-06-23T16:26:13.061Z,67.18
2018-06-23T16:28:40.809Z,66.87
2018-06-23T16:31:08.674Z,67.75
2018-06-23T16:33:36.379Z,67.22
2018-06-23T16:36:04.031Z,68.44
2018-06-23T16:38:31.678Z,68.22
2018-06-23T16:40:59.306Z,67.23
2018-06-23T16:43:26.996Z,66.87
2018-06-23T16:45:54.891Z,67.41
2018-06-23T16:48:22.662Z,67.31
2018-06-23T16:50:50.371Z,66.24
2018-06-23T16:53:18.137Z,66.28
2018-06-23T16:55:45.812Z,65.12
2018-06-23T16:58:13.476Z,64.17
2018-06-23T17:00:41.432Z,64.54
2018-06-23T17:03:09.154Z,63.25
2018-06-23T17:05:36.893Z,62.63
2018-06-23T17:08:04.621Z,61.94
2018-06-23T17:10:32.262Z,62.56
2018-06-23T17:12:59.872Z,62.81
2018-06-23T17:15:27.527Z,63.44
2018-06-23T17:17:55.182Z,63.49
2018-06-23T17:20:22.841Z,62.95
2018-06-23T17:22:51.185Z,62.03
2018-06-23T17:25:18.887Z,62.46
2018-06-23T17:27:46.536Z,62.55
2018-06-23T17:30:14.174Z,63.23
2018-06-23T17:32:41.882Z,63.41
2018-06-23T17:35:09.546Z,63.57
2018-06-23T17:37:37.266Z,64.02
2018-06-23T17:40:04.912Z,63.79
2018-06-23T17:42:32.797Z,63.76
2018-06-23T17:45:00.686Z,63.06
2018-06-23T17:47:28.446Z,62.32
2018-06-23T17:49:56.198Z,61.54
2018-06-23T17:52:23.838Z,62.51
2018-06-23T17:54:51.508Z,62.01
2018-06-23T17:57:19.306Z,62.01
2018-06-23T17:59:46.967Z,61.79
2018-06-23T18:02:14.856Z,62.05
2018-06-23T18:04:42.630Z,60.28
2018-06-23T18:07:10.294Z,61.47
2018-06-23T18:09:37.992Z,62.02
2018-06-23T18:12:06.008Z,61.72
2018-06-23T18:14:33.819Z,62.86
2018-06-23T18:17:01.558Z,63.74
2018-06-23T18:19:29.201Z,62.85
2018-06-23T18:21:56.837Z,63.04
2018-06-23T18:24:25.272Z,62.10
2018-06-23T18:26:53.091Z,62.16
2018-06-23T18:29:20.728Z,61.99
2018-06-23T18:31:49.099Z,61.67
2018-06-23T18:34:16.730Z,61.88
2018-06-23T18:36:44.560Z,61.75
2018-06-23T18:39:12.270Z,62.90
2018-06-23T18:41:39.980Z,63.52
2018-06-23T18:44:07.737Z,63.14
2018-06-23T18:46:35.847Z,63.09
2018-06-23T18:49:03.556Z,63.12
2018-06-23T18:51:31.412Z,63.92
2018-06-23T18:53:59.698Z,63.22
2018-06-23T18:56:27.342Z,63.05
2018-06-23T18:58:55.072Z,62.98
2018-06-23T19:01:22.658Z,62.67
2018-06-23T19:03:50.273Z,62.76
2018-06-23T19:06:17.892Z,62.18
2018-06-23T19:08:45.590Z,62.60
2018-06-23T19:11:13.192Z,63.72
2018-06-23T19:13:40.854Z,63.47
2018-06-23T19:16:08.548Z,62.96
2018-06-23T19:18:36.341Z,63.07
2018-06-23T19:21:04.129Z,63.06
2018-06-23T19:23:31.822Z,62.17
2018-06-23T19:25:59.604Z,61.91
2018-06-23T19:28:27.346Z,63.10
2018-06-23T19:30:55.037Z,63.37
2018-06-23T19:33:22.677Z,63.51
2018-06-23T19:35:50.287Z,64.26
2018-06-23T19:38:18.027Z,65.11
2018-06-23T19:40:45.711Z,66.12
2018-06-23T19:43:13.414Z,66.14
2018-06-23T19:45:41.165Z,66.29
2018-06-23T19:48:09.707Z,67.81
2018-06-23T19:50:37.358Z,68.96
2018-06-23T19:53:05.147Z,69.29
2018-06-23T19:55:32.806Z,69.73
2018-06-23T19:58:00.414Z,69.93
2018-06-23T20:00:28.506Z,70.81
2018-06-23T20:02:56.118Z,70.65
2018-06-23T20:05:23.804Z,70.68
2018-06-23T20:07:53.034Z,70.84
2018-06-23T20:10:21.346Z,70.45
2018-06-23T20:12:49.504Z,69.92
2018-06-23T20:15:17.735Z,69.44
2018-06-23T20:17:46.019Z,69.19
2018-06-23T20:20:13.700Z,69.58
2018-06-23T20:22:41.737Z,69.12
2018-06-23T20:25:09.447Z,69.87
2018-06-23T20:27:37.068Z,69.71
2018-06-23T20:30:05.330Z,69.74
2018-06-23T20:32:33.124Z,70.26
2018-06-23T20:35:00.740Z,70.21
2018-06-23T20:40:10.254Z,70.19
2018-06-23T20:42:43.683Z,70.92
2018-06-23T20:45:22.321Z,70.47
2018-06-23T20:48:03.060Z,70.77
2018-06-23T20:50:37.543Z,71.17
2018-06-23T20:53:07.060Z,70.90
2018-06-23T20:55:34.635Z,70.71
2018-06-23T20:58:02.309Z,71.54
2018-06-23T21:00:29.909Z,71.10
2018-06-23T21:02:57.571Z,71.15
2018-06-23T21:05:25.165Z,71.37
2018-06-23T21:07:52.758Z,71.62
2018-06-23T21:10:39.355Z,70.80
2018-06-23T21:13:06.985Z,70.95
2018-06-23T21:15:34.901Z,71.67
2018-06-23T21:18:02.593Z,71.75
2018-06-23T21:20:30.955Z,71.42
2018-06-23T21:22:58.880Z,71.08
2018-06-23T21:25:26.530Z,70.62
2018-06-23T21:27:54.201Z,71.86
2018-06-23T21:30:21.843Z,71.99
2018-06-23T21:32:49.570Z,71.52
2018-06-23T21:35:17.216Z,72.33
2018-06-23T21:37:44.924Z,71.96
2018-06-23T21:40:12.684Z,71.89
2018-06-23T21:42:47.011Z,71.54
2018-06-23T21:45:14.719Z,71.92
2018-06-23T21:47:42.337Z,71.91
2018-06-23T21:50:10.059Z,71.72
2018-06-23T21:52:37.755Z,71.75
2018-06-23T21:55:05.519Z,71.63
2018-06-23T21:57:33.396Z,72.57
2018-06-23T22:00:01.553Z,73.34
2018-06-23T22:02:29.213Z,72.81
2018-06-23T22:04:56.774Z,72.86
2018-06-23T22:07:24.334Z,72.89
2018-06-23T22:09:51.885Z,74.05
2018-06-23T22:12:19.554Z,74.49
2018-06-23T22:14:47.145Z,75.30
2018-06-23T22:17:14.798Z,75.31
2018-06-23T22:19:42.415Z,75.60
2018-06-23T22:22:10.070Z,75.96
2018-06-23T22:24:38.040Z,77.00
2018-06-23T22:27:05.646Z,76.22
2018-06-23T22:29:33.300Z,77.21
2018-06-23T22:32:00.910Z,77.76
2018-06-23T22:34:28.479Z,77.54
2018-06-23T22:36:56.073Z,78.72
2018-06-23T22:39:23.692Z,77.36
2018-06-23T22:41:51.258Z,77.05
2018-06-23T22:44:18.869Z,76.97
2018-06-23T22:46:46.530Z,77.91
2018-06-23T22:49:14.219Z,77.24
2018-06-23T22:51:41.815Z,77.36
2018-06-23T22:54:09.429Z,77.36
2018-06-23T22:56:37.050Z,78.40
2018-06-23T22:59:04.836Z,77.97
2018-06-23T23:01:32.536Z,78.39
2018-06-23T23:04:00.250Z,78.79
2018-06-23T23:06:27.958Z,77.87
2018-06-23T23:08:55.498Z,77.69
2018-06-23T23:11:23.107Z,78.16
2018-06-23T23:13:50.704Z,78.75
2018-06-23T23:16:18.489Z,78.35
2018-06-23T23:18:46.137Z,78.01
2018-06-23T23:21:13.877Z,78.11
2018-06-23T23:23:41.509Z,77.47
2018-06-23T23:26:09.151Z,77.44
2018-06-23T23:28:36.787Z,77.73
2018-06-23T23:31:04.443Z,77.59
2018-06-23T23:33:32.051Z,76.68
2018-06-23T23:35:59.713Z,77.93
2018-06-23T23:38:27.389Z,78.40
2018-06-23T23:40:55.033Z,77.65
2018-06-23T23:43:22.630Z,78.64
2018-06-23T23:45:50.241Z,79.16
2018-06-23T23:48:17.861Z,78.85
2018-06-23T23:50:45.524Z,79.31
2018-06-23T23:53:13.155Z,79.08
2018-06-23T23:55:40.819Z,79.77
2018-06-23T23:58:08.493Z,79.29
